createdAt,value
2023-05-25T00:00:31.217Z,5.71
2023-05-25T00:03:16.652Z,5.85
2023-05-25T00:06:02.120Z,5.53
2023-05-25T00:08:47.437Z,5.67
2023-05-25T00:11:32.859Z,5.49
2023-05-25T00:14:18.167Z,5.35
2023-05-25T00:17:03.601Z,5.68
2023-05-25T00:19:49.117Z,5.54
2023-05-25T00:22:34.367Z,5.60
2023-05-25T00:25:19.906Z,5.66
2023-05-25T00:28:05.270Z,5.07
2023-05-25T00:30:50.849Z,5.61
2023-05-25T00:33:36.733Z,5.61
2023-05-25T00:36:22.218Z,5.35
2023-05-25T00:39:07.712Z,5.31
2023-05-25T00:41:52.965Z,5.66
2023-05-25T00:44:38.295Z,5.38
2023-05-25T00:47:23.712Z,5.08
2023-05-25T00:50:09.004Z,5.36
2023-05-25T00:52:54.484Z,5.34
2023-05-25T00:55:39.718Z,5.33
2023-05-25T00:58:25.077Z,5.21
2023-05-25T01:01:10.400Z,5.30
2023-05-25T01:03:55.636Z,5.33
2023-05-25T01:06:41.060Z,5.05
2023-05-25T01:09:26.350Z,5.11
2023-05-25T01:12:11.736Z,5.19
2023-05-25T01:14:57.191Z,5.56
2023-05-25T01:17:42.214Z,5.07
2023-05-25T01:20:27.610Z,5.20
2023-05-25T01:23:12.993Z,5.09
2023-05-25T01:25:58.453Z,4.82
2023-05-25T01:28:43.786Z,5.31
2023-05-25T01:31:29.353Z,5.07
2023-05-25T01:34:14.385Z,5.25
2023-05-25T01:36:59.928Z,5.02
2023-05-25T01:39:45.249Z,5.07
2023-05-25T01:42:30.577Z,5.24
2023-05-25T01:45:15.782Z,5.01
2023-05-25T01:48:01.173Z,5.01
2023-05-25T01:50:46.700Z,5.33
2023-05-25T01:53:32.118Z,4.93
2023-05-25T01:56:17.639Z,4.84
2023-05-25T01:59:02.984Z,5.11
2023-05-25T02:01:49.228Z,5.00
2023-05-25T02:04:36.277Z,4.78
2023-05-25T02:07:21.727Z,4.84
2023-05-25T02:10:07.200Z,4.72
2023-05-25T02:12:52.533Z,4.96
2023-05-25T02:15:37.847Z,4.87
2023-05-25T02:18:23.192Z,5.06
2023-05-25T02:21:08.738Z,4.99
2023-05-25T02:23:54.043Z,4.89
2023-05-25T02:26:39.419Z,4.86
2023-05-25T02:29:24.512Z,5.17
2023-05-25T02:32:09.978Z,4.93
2023-05-25T02:34:55.320Z,4.90
2023-05-25T02:37:40.561Z,5.03
2023-05-25T02:40:26.079Z,4.74
2023-05-25T02:43:11.500Z,4.59
2023-05-25T02:45:56.881Z,4.90
2023-05-25T02:48:42.122Z,4.69
2023-05-25T02:51:27.615Z,4.95
2023-05-25T02:54:13.083Z,4.58
2023-05-25T02:56:58.463Z,4.81
2023-05-25T02:59:43.704Z,4.99
2023-05-25T03:02:29.069Z,4.86
2023-05-25T03:05:14.460Z,4.71
2023-05-25T03:07:59.844Z,4.68
2023-05-25T03:10:45.237Z,4.54
2023-05-25T03:13:30.456Z,4.33
2023-05-25T03:16:15.835Z,4.55
2023-05-25T03:19:01.023Z,4.59
2023-05-25T03:21:46.313Z,4.66
2023-05-25T03:24:31.687Z,4.47
2023-05-25T03:27:17.076Z,4.42
2023-05-25T03:30:02.230Z,4.63
2023-05-25T03:32:47.661Z,4.51
2023-05-25T03:35:32.916Z,4.42
2023-05-25T03:38:18.341Z,4.45
2023-05-25T03:41:03.581Z,4.53
2023-05-25T03:43:49.013Z,4.43
2023-05-25T03:46:34.483Z,4.66
2023-05-25T03:49:21.774Z,4.65
2023-05-25T03:52:07.194Z,4.59
2023-05-25T03:54:52.550Z,4.51
2023-05-25T03:57:37.744Z,4.34
2023-05-25T04:00:23.188Z,4.31
2023-05-25T04:03:08.564Z,4.56
2023-05-25T04:05:53.956Z,4.60
2023-05-25T04:08:39.309Z,4.33
2023-05-25T04:11:24.688Z,4.24
2023-05-25T04:14:10.099Z,4.28
2023-05-25T04:16:55.342Z,4.22
2023-05-25T04:19:40.860Z,4.59
2023-05-25T04:22:25.928Z,4.25
2023-05-25T04:25:11.258Z,4.38
2023-05-25T04:27:56.624Z,4.36
2023-05-25T04:30:42.165Z,4.75
2023-05-25T04:33:27.482Z,4.64
2023-05-25T04:36:12.744Z,5.19
2023-05-25T04:38:58.319Z,4.84
2023-05-25T04:41:43.456Z,5.12
2023-05-25T04:44:28.842Z,4.82
2023-05-25T04:47:14.116Z,5.18
2023-05-25T04:49:59.660Z,5.05
2023-05-25T04:52:45.102Z,5.12
2023-05-25T04:55:30.415Z,5.09
2023-05-25T04:58:15.655Z,5.09
2023-05-25T05:01:01.029Z,4.79
2023-05-25T05:03:46.161Z,4.77
2023-05-25T05:06:31.425Z,4.81
2023-05-25T05:09:16.984Z,4.86
2023-05-25T05:12:02.365Z,4.55
2023-05-25T05:14:47.716Z,5.03
2023-05-25T05:17:33.075Z,4.89
2023-05-25T05:20:18.581Z,5.35
2023-05-25T05:23:03.827Z,4.96
2023-05-25T05:25:49.183Z,5.31
2023-05-25T05:28:34.551Z,4.66
2023-05-25T05:31:19.885Z,4.90
2023-05-25T05:34:05.172Z,4.76
2023-05-25T05:36:58.256Z,4.79
2023-05-25T05:39:43.973Z,4.82
2023-05-25T05:42:29.411Z,4.44
2023-05-25T05:45:14.733Z,4.53
2023-05-25T05:48:00.247Z,4.78
2023-05-25T05:50:45.501Z,4.60
2023-05-25T05:53:30.829Z,4.32
2023-05-25T05:56:15.973Z,4.48
2023-05-25T05:59:01.186Z,4.49
2023-05-25T06:01:46.620Z,4.81
2023-05-25T06:04:31.936Z,4.45
2023-05-25T06:07:17.417Z,4.53
2023-05-25T06:10:02.513Z,4.36
2023-05-25T06:12:47.846Z,5.08
2023-05-25T06:15:33.012Z,4.67
2023-05-25T06:18:18.200Z,4.94
2023-05-25T06:21:03.601Z,4.81
2023-05-25T06:23:48.927Z,4.75
2023-05-25T06:26:34.198Z,4.81
2023-05-25T06:29:19.415Z,4.94
2023-05-25T06:32:04.489Z,4.69
2023-05-25T06:34:49.760Z,4.92
2023-05-25T06:37:34.998Z,5.11
2023-05-25T06:40:20.557Z,4.81
2023-05-25T06:43:05.869Z,5.17
2023-05-25T06:45:51.250Z,5.37
2023-05-25T06:48:36.567Z,5.10
2023-05-25T06:51:21.813Z,4.87
2023-05-25T06:54:07.236Z,5.08
2023-05-25T06:56:52.420Z,5.04
2023-05-25T06:59:38.095Z,4.69
2023-05-25T07:02:23.396Z,4.90
2023-05-25T07:05:08.737Z,4.75
2023-05-25T07:07:54.081Z,4.60
2023-05-25T07:10:39.443Z,4.64
2023-05-25T07:13:24.760Z,4.62
2023-05-25T07:16:10.175Z,4.89
2023-05-25T07:18:55.953Z,4.70
2023-05-25T07:21:51.223Z,4.42
2023-05-25T07:24:39.328Z,4.56
2023-05-25T07:27:42.126Z,4.56
2023-05-25T07:30:39.422Z,4.59
2023-05-25T07:33:25.522Z,4.62
2023-05-25T07:36:11.990Z,4.22
2023-05-25T07:38:59.285Z,4.23
2023-05-25T07:41:44.999Z,4.37
2023-05-25T07:44:48.975Z,4.56
2023-05-25T07:47:35.503Z,4.39
2023-05-25T07:50:22.193Z,4.77
2023-05-25T07:53:11.363Z,4.46
2023-05-25T07:55:57.703Z,4.48
2023-05-25T07:58:45.241Z,4.47
2023-05-25T08:01:31.630Z,4.34
2023-05-25T08:04:18.093Z,4.69
2023-05-25T08:07:13.524Z,4.32
2023-05-25T08:10:00.484Z,4.39
2023-05-25T08:12:50.721Z,4.36
2023-05-25T08:15:40.597Z,4.51
2023-05-25T08:18:28.584Z,4.37
2023-05-25T08:21:15.892Z,4.41
2023-05-25T08:24:03.131Z,4.09
2023-05-25T08:26:54.844Z,4.30
2023-05-25T08:29:40.592Z,4.06
2023-05-25T08:32:26.034Z,4.29
2023-05-25T08:35:11.359Z,3.95
2023-05-25T08:37:56.767Z,4.42
2023-05-25T08:40:42.089Z,4.08
2023-05-25T08:43:27.520Z,4.34
2023-05-25T08:46:12.852Z,4.04
2023-05-25T08:48:58.419Z,4.18
2023-05-25T08:51:43.522Z,4.07
2023-05-25T08:54:28.713Z,4.07
2023-05-25T08:57:14.034Z,4.17
2023-05-25T08:59:59.283Z,4.13
2023-05-25T09:02:44.742Z,4.08
2023-05-25T09:05:30.127Z,3.88
2023-05-25T09:08:15.290Z,3.95
2023-05-25T09:11:00.619Z,3.84
2023-05-25T09:13:46.110Z,4.15
2023-05-25T09:16:31.465Z,4.03
2023-05-25T09:19:16.845Z,4.29
2023-05-25T09:22:14.107Z,4.18
2023-05-25T09:25:01.154Z,3.90
2023-05-25T09:27:46.459Z,4.07
2023-05-25T09:30:31.819Z,3.99
2023-05-25T09:33:17.356Z,3.78
2023-05-25T09:36:02.610Z,3.85
2023-05-25T09:38:48.334Z,3.87
2023-05-25T09:41:33.454Z,4.05
2023-05-25T09:44:18.674Z,4.21
2023-05-25T09:47:04.125Z,4.01
2023-05-25T09:49:49.527Z,3.85
2023-05-25T09:52:34.946Z,4.03
2023-05-25T09:55:20.417Z,4.31
2023-05-25T09:58:05.595Z,3.91
2023-05-25T10:00:50.972Z,3.71
2023-05-25T10:03:36.363Z,3.59
2023-05-25T10:06:21.715Z,3.75
2023-05-25T10:09:07.066Z,3.88
2023-05-25T10:11:52.159Z,3.64
2023-05-25T10:14:37.588Z,3.72
2023-05-25T10:17:22.988Z,3.60
2023-05-25T10:20:08.243Z,3.78
2023-05-25T10:22:53.496Z,3.78
2023-05-25T10:25:38.867Z,3.62
2023-05-25T10:28:24.242Z,3.60
2023-05-25T10:31:09.629Z,3.63
2023-05-25T10:33:54.881Z,3.68
2023-05-25T10:36:40.142Z,3.80
2023-05-25T10:39:25.497Z,3.60
2023-05-25T10:42:11.049Z,3.73
2023-05-25T10:44:56.186Z,3.63
2023-05-25T10:47:41.817Z,3.79
2023-05-25T10:50:27.227Z,3.42
2023-05-25T10:53:12.545Z,3.71
2023-05-25T10:55:57.930Z,3.83
2023-05-25T10:58:43.170Z,3.69
2023-05-25T11:01:28.939Z,3.63
2023-05-25T11:04:14.071Z,3.71
2023-05-25T11:06:59.517Z,3.68
2023-05-25T11:09:44.911Z,3.56
2023-05-25T11:12:30.392Z,3.46
2023-05-25T11:15:15.969Z,3.61
2023-05-25T11:18:01.348Z,3.29
2023-05-25T11:20:46.585Z,3.53
2023-05-25T11:23:31.789Z,3.56
2023-05-25T11:26:17.167Z,3.32
2023-05-25T11:29:02.576Z,3.59
2023-05-25T11:31:48.022Z,3.65
2023-05-25T11:34:33.221Z,3.40
2023-05-25T11:37:18.349Z,3.42
2023-05-25T11:40:03.861Z,3.39
2023-05-25T11:42:49.242Z,3.40
2023-05-25T11:45:34.691Z,3.49
2023-05-25T11:48:20.254Z,3.62
2023-05-25T11:51:05.251Z,3.41
2023-05-25T11:53:50.761Z,3.44
2023-05-25T11:56:36.316Z,3.34
2023-05-25T11:59:21.334Z,3.28
2023-05-25T12:02:06.875Z,3.31
2023-05-25T12:04:51.963Z,3.11
2023-05-25T12:07:37.382Z,3.38
2023-05-25T12:10:22.606Z,3.38
2023-05-25T12:13:08.073Z,3.39
2023-05-25T12:15:53.398Z,3.49
2023-05-25T12:18:38.949Z,3.45
2023-05-25T12:21:24.399Z,3.14
2023-05-25T12:24:09.817Z,3.24
2023-05-25T12:26:55.071Z,3.36
2023-05-25T12:29:40.309Z,3.16
2023-05-25T12:32:25.630Z,3.21
2023-05-25T12:35:10.796Z,3.12
2023-05-25T12:37:56.254Z,3.43
2023-05-25T12:40:41.774Z,3.06
2023-05-25T12:43:27.021Z,3.29
2023-05-25T12:46:12.451Z,3.28
2023-05-25T12:48:57.744Z,3.08
2023-05-25T12:51:42.962Z,3.22
2023-05-25T12:54:28.436Z,3.05
2023-05-25T12:57:13.621Z,3.06
2023-05-25T12:59:59.100Z,3.03
2023-05-25T13:02:44.370Z,2.94
2023-05-25T13:05:29.830Z,3.03
2023-05-25T13:08:15.144Z,3.07
2023-05-25T13:11:00.701Z,3.09
2023-05-25T13:13:45.949Z,2.95
2023-05-25T13:16:31.150Z,3.18
2023-05-25T13:19:16.525Z,2.96
2023-05-25T13:22:01.822Z,2.94
2023-05-25T13:24:47.157Z,3.11
2023-05-25T13:27:32.560Z,2.99
2023-05-25T13:30:17.866Z,3.00
2023-05-25T13:33:03.323Z,2.88
2023-05-25T13:35:48.485Z,2.98
2023-05-25T13:38:33.590Z,3.22
2023-05-25T13:41:19.176Z,3.00
2023-05-25T13:44:04.312Z,2.81
2023-05-25T13:46:49.850Z,2.88
2023-05-25T13:49:35.314Z,2.90
2023-05-25T13:52:20.718Z,3.04
2023-05-25T13:55:06.098Z,2.92
2023-05-25T13:57:51.270Z,3.09
2023-05-25T14:00:36.618Z,3.05
2023-05-25T14:03:22.233Z,3.09
2023-05-25T14:06:08.748Z,3.14
2023-05-25T14:08:54.081Z,3.02
2023-05-25T14:11:39.752Z,2.99
2023-05-25T14:14:32.153Z,2.87
2023-05-25T14:17:18.169Z,2.99
2023-05-25T14:20:03.419Z,3.00
2023-05-25T14:22:48.808Z,2.87
2023-05-25T14:25:34.114Z,3.15
2023-05-25T14:28:19.658Z,3.14
2023-05-25T14:31:04.908Z,3.18
2023-05-25T14:33:50.307Z,2.83
2023-05-25T14:36:35.741Z,2.97
2023-05-25T14:39:21.135Z,2.88
2023-05-25T14:42:06.315Z,2.96
2023-05-25T14:44:51.925Z,2.93
2023-05-25T14:47:37.220Z,2.93
2023-05-25T14:50:22.554Z,3.10
2023-05-25T14:53:07.832Z,3.04
2023-05-25T14:55:53.446Z,2.79
2023-05-25T14:58:38.730Z,3.05
2023-05-25T15:01:25.520Z,3.23
2023-05-25T15:04:10.954Z,2.89
2023-05-25T15:06:58.223Z,3.02
2023-05-25T15:09:43.657Z,2.92
2023-05-25T15:12:29.197Z,2.75
2023-05-25T15:15:14.323Z,2.96
2023-05-25T15:17:59.698Z,2.84
2023-05-25T15:20:45.029Z,2.90
2023-05-25T15:23:30.416Z,2.91
2023-05-25T15:26:15.876Z,2.57
2023-05-25T15:29:01.360Z,2.88
2023-05-25T15:31:46.708Z,2.90
2023-05-25T15:34:31.957Z,2.75
2023-05-25T15:37:17.347Z,2.68
2023-05-25T15:40:02.802Z,2.55
2023-05-25T15:42:48.043Z,2.83
2023-05-25T15:45:33.342Z,2.85
2023-05-25T15:48:18.644Z,2.98
2023-05-25T15:51:03.998Z,2.77
2023-05-25T15:53:49.308Z,2.85
2023-05-25T15:56:34.750Z,2.74
2023-05-25T15:59:19.993Z,2.90
2023-05-25T16:02:05.675Z,2.70
2023-05-25T16:04:51.002Z,2.71
2023-05-25T16:07:36.317Z,2.83
2023-05-25T16:10:21.721Z,2.96
2023-05-25T16:13:07.333Z,2.62
2023-05-25T16:15:52.807Z,2.93
2023-05-25T16:18:38.397Z,2.95
2023-05-25T16:21:23.670Z,2.87
2023-05-25T16:24:09.223Z,2.73
2023-05-25T16:26:54.518Z,2.73
2023-05-25T16:29:39.745Z,2.83
2023-05-25T16:32:25.402Z,2.90
2023-05-25T16:35:10.751Z,3.28
2023-05-25T16:37:56.217Z,3.81
2023-05-25T16:40:41.431Z,3.72
2023-05-25T16:43:26.768Z,4.49
2023-05-25T16:46:12.389Z,5.52
2023-05-25T16:48:57.730Z,6.41
2023-05-25T16:51:43.056Z,7.16
2023-05-25T16:54:28.443Z,6.52
2023-05-25T16:57:13.773Z,7.25
2023-05-25T16:59:59.087Z,6.80
2023-05-25T17:02:44.298Z,6.79
2023-05-25T17:05:29.954Z,6.64
2023-05-25T17:08:15.280Z,6.44
2023-05-25T17:11:00.833Z,6.08
2023-05-25T17:13:46.132Z,6.41
2023-05-25T17:16:31.624Z,5.86
2023-05-25T17:19:17.107Z,5.87
2023-05-25T17:22:02.452Z,6.01
2023-05-25T17:24:47.880Z,5.89
2023-05-25T17:27:33.202Z,5.85
2023-05-25T17:30:18.627Z,5.65
2023-05-25T17:33:03.946Z,5.58
2023-05-25T17:35:49.170Z,5.39
2023-05-25T17:38:34.747Z,5.59
2023-05-25T17:41:19.967Z,5.76
2023-05-25T17:44:05.568Z,5.51
2023-05-25T17:46:50.753Z,5.39
2023-05-25T17:49:37.410Z,5.80
2023-05-25T17:52:22.726Z,5.38
2023-05-25T17:55:07.780Z,5.67
2023-05-25T17:57:53.122Z,5.47
2023-05-25T18:00:38.632Z,5.40
2023-05-25T18:03:24.071Z,5.56
2023-05-25T18:06:09.213Z,5.67
2023-05-25T18:08:54.482Z,11.64
2023-05-25T18:11:40.060Z,58.00
2023-05-25T18:14:25.480Z,88.28
2023-05-25T18:17:11.045Z,90.92
2023-05-25T18:19:56.422Z,111.19
2023-05-25T18:22:41.616Z,100.16
2023-05-25T18:25:27.005Z,93.86
2023-05-25T18:28:12.449Z,92.01
2023-05-25T18:30:58.020Z,98.37
2023-05-25T18:33:43.373Z,100.40
2023-05-25T18:36:28.684Z,98.94
2023-05-25T18:39:14.147Z,97.33
2023-05-25T18:41:59.468Z,96.74
2023-05-25T18:44:44.950Z,93.26
2023-05-25T18:47:30.248Z,92.97
2023-05-25T18:50:15.451Z,92.11
2023-05-25T18:53:00.585Z,90.64
2023-05-25T18:55:46.244Z,90.60
2023-05-25T18:58:31.476Z,88.97
2023-05-25T19:01:16.875Z,88.58
2023-05-25T19:04:02.242Z,87.20
2023-05-25T19:06:47.609Z,80.51
2023-05-25T19:09:33.047Z,70.20
2023-05-25T19:12:18.405Z,65.12
2023-05-25T19:15:03.635Z,64.08
2023-05-25T19:17:49.150Z,62.63
2023-05-25T19:20:34.585Z,60.40
2023-05-25T19:23:19.951Z,58.79
2023-05-25T19:26:05.557Z,58.63
2023-05-25T19:28:50.871Z,63.40
2023-05-25T19:31:36.269Z,58.92
2023-05-25T19:34:21.367Z,54.86
2023-05-25T19:37:11.665Z,49.63
2023-05-25T19:39:57.311Z,46.67
2023-05-25T19:42:42.454Z,47.99
2023-05-25T19:45:27.914Z,43.99
2023-05-25T19:48:13.248Z,42.24
2023-05-25T19:50:58.530Z,40.29
2023-05-25T19:53:43.790Z,39.07
2023-05-25T19:56:28.987Z,37.51
2023-05-25T19:59:14.439Z,36.36
2023-05-25T20:01:59.800Z,36.81
2023-05-25T20:04:45.004Z,35.11
2023-05-25T20:07:30.353Z,34.33
2023-05-25T20:10:15.598Z,31.46
2023-05-25T20:13:01.015Z,32.59
2023-05-25T20:15:46.513Z,31.07
2023-05-25T20:18:32.127Z,28.94
2023-05-25T20:21:17.548Z,27.36
2023-05-25T20:24:02.913Z,26.85
2023-05-25T20:26:48.241Z,26.26
2023-05-25T20:29:33.672Z,25.31
2023-05-25T20:32:18.952Z,25.02
2023-05-25T20:35:04.277Z,24.36
2023-05-25T20:37:49.671Z,23.21
2023-05-25T20:40:34.990Z,22.75
2023-05-25T20:43:20.389Z,22.78
2023-05-25T20:46:05.803Z,22.09
2023-05-25T20:48:50.997Z,20.75
2023-05-25T20:51:36.573Z,20.34
2023-05-25T20:54:22.087Z,20.14
2023-05-25T20:57:07.591Z,18.81
2023-05-25T20:59:53.073Z,18.49
2023-05-25T21:02:38.369Z,18.28
2023-05-25T21:05:23.648Z,17.66
2023-05-25T21:08:09.050Z,16.78
2023-05-25T21:10:54.413Z,16.08
2023-05-25T21:13:39.695Z,16.49
2023-05-25T21:16:25.164Z,15.90
2023-05-25T21:19:10.385Z,15.10
2023-05-25T21:21:55.691Z,15.05
2023-05-25T21:24:41.082Z,14.70
2023-05-25T21:27:26.471Z,14.27
2023-05-25T21:30:11.687Z,14.21
2023-05-25T21:32:57.163Z,13.75
2023-05-25T21:35:42.570Z,13.37
2023-05-25T21:38:27.949Z,12.96
2023-05-25T21:41:13.248Z,13.03
2023-05-25T21:43:58.440Z,12.42
2023-05-25T21:46:43.972Z,11.53
2023-05-25T21:49:29.260Z,12.01
2023-05-25T21:52:14.498Z,11.66
2023-05-25T21:54:59.816Z,11.65
2023-05-25T21:57:45.243Z,11.39
2023-05-25T22:00:30.639Z,11.74
2023-05-25T22:03:16.221Z,11.34
2023-05-25T22:06:01.791Z,11.37
2023-05-25T22:08:47.114Z,11.20
2023-05-25T22:11:32.593Z,10.92
2023-05-25T22:14:17.727Z,10.61
2023-05-25T22:17:02.931Z,10.40
2023-05-25T22:19:59.029Z,9.88
2023-05-25T22:22:51.477Z,9.98
2023-05-25T22:25:36.888Z,9.81
2023-05-25T22:28:22.277Z,9.89
2023-05-25T22:31:07.866Z,9.46
2023-05-25T22:33:52.988Z,9.78
2023-05-25T22:36:38.242Z,9.51
2023-05-25T22:39:23.547Z,9.34
2023-05-25T22:42:08.815Z,8.97
2023-05-25T22:44:54.240Z,8.57
2023-05-25T22:47:39.618Z,8.96
2023-05-25T22:50:24.874Z,8.48
2023-05-25T22:53:10.172Z,8.44
2023-05-25T22:55:55.333Z,8.38
2023-05-25T22:58:40.705Z,8.37
2023-05-25T23:01:26.027Z,8.39
2023-05-25T23:04:11.333Z,8.29
2023-05-25T23:06:56.649Z,8.35
2023-05-25T23:09:42.047Z,8.24
2023-05-25T23:12:27.470Z,8.38
2023-05-25T23:15:12.799Z,8.25
2023-05-25T23:17:58.160Z,8.28
2023-05-25T23:20:43.852Z,8.27
2023-05-25T23:23:29.078Z,8.04
2023-05-25T23:26:14.494Z,7.96
2023-05-25T23:28:59.885Z,7.97
2023-05-25T23:31:45.271Z,8.06
2023-05-25T23:34:30.726Z,7.82
2023-05-25T23:37:16.108Z,7.71
2023-05-25T23:40:01.357Z,7.83
2023-05-25T23:42:46.696Z,7.61
2023-05-25T23:45:32.176Z,7.65
2023-05-25T23:48:17.500Z,7.76
2023-05-25T23:51:02.835Z,7.74
2023-05-25T23:53:48.225Z,7.80
2023-05-25T23:56:33.725Z,7.78
2023-05-25T23:59:19.217Z,7.94
